Time;durP1;ratioP1;P1;durP2;ratioP2;P2;SDS_P1;SDS_P2;PMS_P1;PMS_P2;Temp;Humidity;BMP_temperature;BMP_pressure;BME280_temperature;BME280_humidity;BME280_pressure;Samples;Min_cycle;Max_cycle;Signal;HPM_P1;HPM_P2
2021/10/27 00:00:32;;;;;;;;;17.50;14.50;;;;;13.49;60.72;102040.91;5090294;27;45418;-61
2021/10/27 00:02:58;;;;;;;;;14.00;12.00;;;;;13.45;60.79;102041.84;5092829;27;46165;-60
2021/10/27 00:05:23;;;;;;;;;16.25;14.50;;;;;13.43;61.07;102046.22;5089372;27;45336;-61
2021/10/27 00:07:50;;;;;;;;;17.00;15.00;;;;;13.42;60.83;102044.47;5088441;27;45225;-61
2021/10/27 00:10:16;;;;;;;;;16.00;14.50;;;;;13.40;61.01;102048.91;5093153;27;45386;-61
2021/10/27 00:12:42;;;;;;;;;16.00;15.00;;;;;13.37;61.00;102046.22;5096203;27;45500;-61
2021/10/27 00:15:10;;;;;;;;;20.50;18.00;;;;;13.36;60.71;102039.19;5082578;27;45420;-63
2021/10/27 00:17:35;;;;;;;;;13.00;13.00;;;;;13.30;60.86;102040.97;5096286;27;45249;-63
2021/10/27 00:20:03;;;;;;;;;14.50;13.50;;;;;13.30;61.15;102042.75;5093300;27;45220;-63
2021/10/27 00:22:28;;;;;;;;;14.00;13.00;;;;;13.28;60.89;102048.03;5089406;27;45428;-63
2021/10/27 00:24:54;;;;;;;;;14.75;14.25;;;;;13.24;61.34;102048.91;5101496;27;45363;-63
2021/10/27 00:27:19;;;;;;;;;12.25;11.25;;;;;13.22;60.98;102047.16;5089341;27;45344;-62
2021/10/27 00:29:44;;;;;;;;;13.00;13.00;;;;;13.22;60.82;102047.16;5103010;27;45322;-62
2021/10/27 00:32:10;;;;;;;;;13.25;11.75;;;;;13.20;61.19;102055.09;5098955;27;46350;-62
2021/10/27 00:34:35;;;;;;;;;16.50;13.50;;;;;13.19;61.29;102050.72;5092934;27;45318;-63
2021/10/27 00:37:01;;;;;;;;;16.50;12.75;;;;;13.16;61.42;102042.81;5089360;27;45272;-61
2021/10/27 00:39:27;;;;;;;;;15.50;14.00;;;;;13.12;61.07;102052.50;5092108;27;45536;-61
2021/10/27 00:41:53;;;;;;;;;11.50;11.50;;;;;13.11;61.12;102058.66;5094519;27;47326;-61
2021/10/27 00:44:23;;;;;;;;;15.00;14.00;;;;;13.11;61.04;102053.38;5093439;27;45333;-61
2021/10/27 00:47:07;;;;;;;;;18.25;17.75;;;;;13.10;61.13;102054.25;5096558;27;45330;-62
2021/10/27 00:49:34;;;;;;;;;30.25;25.25;;;;;13.07;61.13;102043.72;5094884;27;45512;-62
2021/10/27 00:52:03;;;;;;;;;26.00;21.50;;;;;13.07;61.29;102045.47;5102336;27;46142;-62
2021/10/27 00:54:29;;;;;;;;;24.75;23.00;;;;;13.05;61.21;102047.25;5089386;27;45352;-61
2021/10/27 00:56:57;;;;;;;;;26.00;23.25;;;;;13.05;61.22;102050.75;5096393;27;45177;-62
2021/10/27 00:59:24;;;;;;;;;30.00;29.00;;;;;13.05;60.96;102057.81;5088652;27;45505;-61
2021/10/27 01:01:50;;;;;;;;;36.25;30.75;;;;;13.03;61.13;102051.66;5095563;27;45898;-61
2021/10/27 01:04:16;;;;;;;;;39.00;33.00;;;;;13.01;61.35;102055.16;5095263;27;45311;-61
2021/10/27 01:06:42;;;;;;;;;46.00;34.00;;;;;13.00;61.25;102048.16;5088179;27;45293;-61
2021/10/27 01:09:08;;;;;;;;;41.25;33.75;;;;;13.00;61.34;102050.81;5088750;27;45485;-62
2021/10/27 01:11:33;;;;;;;;;45.75;37.00;;;;;13.00;61.38;102042.00;5094914;27;45204;-62
2021/10/27 01:13:59;;;;;;;;;43.75;36.50;;;;;12.94;61.18;102036.72;5095358;27;45310;-61
2021/10/27 01:16:24;;;;;;;;;41.50;33.75;;;;;12.97;61.09;102045.53;5089416;27;45229;-61
2021/10/27 01:18:53;;;;;;;;;39.50;33.50;;;;;12.94;61.09;102037.63;5088418;27;45444;-61
2021/10/27 01:21:24;;;;;;;;;43.25;34.50;;;;;12.95;61.28;102049.91;5092418;27;47313;-62
2021/10/27 01:23:50;;;;;;;;;37.25;33.25;;;;;12.94;61.52;102042.91;5097336;27;45347;-62
2021/10/27 01:26:15;;;;;;;;;34.50;30.00;;;;;12.93;61.14;102046.41;5093026;27;45309;-61
2021/10/27 01:28:42;;;;;;;;;33.75;27.50;;;;;12.91;61.09;102042.03;5095211;27;45321;-61
2021/10/27 01:31:09;;;;;;;;;28.00;25.50;;;;;12.90;61.10;102041.13;5091058;27;45430;-61
2021/10/27 01:33:35;;;;;;;;;24.75;23.25;;;;;12.89;61.28;102031.47;5085193;27;45333;-61
2021/10/27 01:36:01;;;;;;;;;22.50;21.50;;;;;12.88;61.13;102027.09;5091445;27;45335;-61
2021/10/27 01:38:26;;;;;;;;;25.75;24.25;;;;;12.88;61.33;102026.19;5088186;27;45314;-61
2021/10/27 01:40:52;;;;;;;;;21.50;20.25;;;;;12.87;61.23;102024.44;5091933;27;45291;-61
2021/10/27 01:43:17;;;;;;;;;16.25;14.00;;;;;12.84;61.17;102022.69;5095083;27;45276;-61
2021/10/27 01:45:43;;;;;;;;;19.25;19.00;;;;;12.82;61.51;102020.06;5090202;27;45284;-61
2021/10/27 01:48:09;;;;;;;;;15.25;14.50;;;;;12.81;61.09;102020.94;5087864;27;45252;-61
2021/10/27 01:50:35;;;;;;;;;15.00;14.00;;;;;12.73;61.62;102006.00;5101294;27;45265;-61
2021/10/27 01:53:01;;;;;;;;;19.75;16.50;;;;;12.79;61.53;102021.81;5100842;27;45215;-61
2021/10/27 01:55:27;;;;;;;;;18.75;17.75;;;;;12.78;61.25;102022.69;5089118;27;45363;-61
2021/10/27 01:57:52;;;;;;;;;16.25;13.50;;;;;12.75;61.30;102013.03;5094153;27;45330;-61
2021/10/27 02:00:19;;;;;;;;;15.00;13.75;;;;;12.75;61.16;102014.81;5093637;27;45453;-61
2021/10/27 02:02:45;;;;;;;;;18.75;16.00;;;;;12.72;61.38;102004.28;5094705;27;45323;-61
2021/10/27 02:05:11;;;;;;;;;17.00;17.00;;;;;12.71;61.54;102005.16;5088841;27;45441;-61
2021/10/27 02:07:37;;;;;;;;;17.75;16.00;;;;;12.72;61.20;102004.28;5087875;27;45354;-61
2021/10/27 02:10:06;;;;;;;;;17.50;17.50;;;;;12.66;61.43;101998.13;5092940;27;46290;-62
2021/10/27 02:12:31;;;;;;;;;16.75;16.00;;;;;12.68;61.48;102004.28;5094339;27;45468;-62
2021/10/27 02:14:56;;;;;;;;;14.00;13.00;;;;;12.67;61.18;102002.50;5090002;27;45295;-61
2021/10/27 02:17:22;;;;;;;;;18.00;16.50;;;;;12.67;61.50;101997.25;5087683;27;45535;-61
2021/10/27 02:19:48;;;;;;;;;18.50;16.00;;;;;12.60;60.90;101984.09;5091757;27;46093;-61
2021/10/27 02:22:14;;;;;;;;;23.25;19.00;;;;;12.65;61.50;101999.03;5094349;27;45496;-61
2021/10/27 02:24:39;;;;;;;;;20.75;17.00;;;;;12.64;61.49;101988.47;5097014;27;45667;-61
2021/10/27 02:27:05;;;;;;;;;14.50;14.25;;;;;12.62;61.43;101996.38;5086116;27;45387;-61
2021/10/27 02:29:30;;;;;;;;;15.50;14.00;;;;;12.61;61.33;101997.25;5097989;27;46165;-61
2021/10/27 02:31:55;;;;;;;;;21.00;18.75;;;;;12.61;61.39;101999.03;5098649;27;45375;-62
2021/10/27 02:34:21;;;;;;;;;17.00;17.00;;;;;12.58;61.34;101989.38;5089535;27;45316;-60
2021/10/27 02:36:46;;;;;;;;;19.75;15.75;;;;;12.58;61.22;101996.38;5087392;27;45323;-60
2021/10/27 02:39:12;;;;;;;;;17.25;15.50;;;;;12.57;61.12;101992.03;5091942;27;45311;-61
2021/10/27 02:41:37;;;;;;;;;14.75;14.25;;;;;12.53;61.21;101999.06;5092735;27;45276;-61
2021/10/27 02:44:03;;;;;;;;;17.25;16.75;;;;;12.53;61.61;101999.06;5089590;27;45223;-61
2021/10/27 02:46:28;;;;;;;;;19.75;17.00;;;;;12.51;61.08;102001.69;5087077;27;45251;-61
2021/10/27 02:48:54;;;;;;;;;18.25;16.50;;;;;12.51;61.01;102004.34;5091923;27;46164;-62
2021/10/27 02:51:19;;;;;;;;;22.75;19.00;;;;;12.49;61.28;101998.19;5113595;27;45373;-62
2021/10/27 02:53:45;;;;;;;;;20.00;18.75;;;;;12.47;61.28;102005.19;5092511;27;45828;-62
2021/10/27 02:56:10;;;;;;;;;17.75;16.50;;;;;12.45;61.30;101992.91;5093972;27;45393;-62
2021/10/27 02:58:35;;;;;;;;;18.25;18.25;;;;;12.44;61.25;102004.31;5094935;27;46250;-62
2021/10/27 03:01:01;;;;;;;;;20.25;17.25;;;;;12.42;61.12;101998.19;5086921;27;45236;-61
2021/10/27 03:03:27;;;;;;;;;17.25;15.50;;;;;12.40;61.16;102006.13;5093557;27;45237;-62
2021/10/27 03:05:52;;;;;;;;;22.00;20.00;;;;;12.38;61.31;101996.44;5093551;27;45367;-62
2021/10/27 03:08:17;;;;;;;;;19.75;15.50;;;;;12.33;61.38;101992.03;5087798;27;46021;-61
2021/10/27 03:10:43;;;;;;;;;20.25;18.75;;;;;12.31;61.12;101999.09;5086934;27;45390;-64
2021/10/27 03:13:08;;;;;;;;;23.50;15.50;;;;;12.32;61.00;102006.09;5092785;27;45444;-62
2021/10/27 03:15:34;;;;;;;;;18.25;18.25;;;;;12.30;61.39;102001.72;5093648;27;45429;-62
2021/10/27 03:17:59;;;;;;;;;19.25;18.00;;;;;12.29;61.30;102000.84;5087585;27;46009;-62
2021/10/27 03:20:24;;;;;;;;;17.75;17.00;;;;;12.26;61.42;101999.97;5086365;27;45259;-63
2021/10/27 03:22:50;;;;;;;;;21.25;17.75;;;;;12.26;61.33;102010.50;5093971;27;45784;-64
2021/10/27 03:25:15;;;;;;;;;21.50;19.50;;;;;12.25;61.13;101999.09;5099875;27;45322;-64
2021/10/27 03:27:41;;;;;;;;;21.50;19.00;;;;;12.23;61.24;102000.84;5085808;27;46009;-64
2021/10/27 03:30:06;;;;;;;;;19.75;15.25;;;;;12.22;61.38;102001.72;5097947;27;45263;-64
2021/10/27 03:32:32;;;;;;;;;16.50;16.00;;;;;12.17;61.14;101999.09;5093169;27;45390;-62
2021/10/27 03:34:57;;;;;;;;;20.50;18.50;;;;;12.19;61.39;101999.09;5093349;27;45348;-62
2021/10/27 03:37:23;;;;;;;;;18.00;18.00;;;;;12.17;61.23;101990.31;5087243;27;46168;-62
2021/10/27 03:39:49;;;;;;;;;20.25;19.00;;;;;12.15;61.14;101989.44;5099368;27;45287;-61
2021/10/27 03:42:15;;;;;;;;;19.50;18.75;;;;;12.11;61.07;101987.69;5090139;27;45231;-62
2021/10/27 03:44:40;;;;;;;;;21.50;17.25;;;;;12.11;61.20;101992.94;5089992;27;45417;-62
2021/10/27 03:47:06;;;;;;;;;17.00;16.00;;;;;12.09;61.29;101992.06;5096280;27;46812;-62
2021/10/27 03:49:31;;;;;;;;;22.00;17.75;;;;;12.06;61.18;101986.81;5097194;27;45875;-62
2021/10/27 03:51:57;;;;;;;;;20.50;17.00;;;;;12.03;61.29;101988.56;5103599;27;45251;-61
2021/10/27 03:54:22;;;;;;;;;19.25;17.25;;;;;12.00;61.53;101980.66;5091592;27;45536;-61
2021/10/27 03:56:47;;;;;;;;;21.00;17.75;;;;;11.99;61.34;101984.19;5096681;27;45407;-63
2021/10/27 03:59:13;;;;;;;;;19.50;19.00;;;;;11.97;61.36;101993.81;5103038;27;45329;-63
2021/10/27 04:01:38;;;;;;;;;18.00;17.50;;;;;11.95;61.29;101998.19;5089918;27;45221;-63
2021/10/27 04:04:04;;;;;;;;;21.00;19.00;;;;;11.93;61.47;101992.03;5090749;27;45338;-63
2021/10/27 04:06:29;;;;;;;;;17.25;17.00;;;;;11.92;61.57;102002.59;5096450;27;46247;-63
2021/10/27 04:08:55;;;;;;;;;22.75;18.50;;;;;11.86;61.63;101990.28;5095365;27;45409;-63
2021/10/27 04:11:20;;;;;;;;;16.25;16.25;;;;;11.89;61.45;102006.09;5088395;27;45391;-63
2021/10/27 04:13:45;;;;;;;;;20.00;17.00;;;;;11.87;61.32;101992.03;5091027;27;45509;-62
2021/10/27 04:16:11;;;;;;;;;18.75;18.75;;;;;11.87;61.67;101999.94;5096060;27;46506;-62
2021/10/27 04:18:36;;;;;;;;;21.75;18.00;;;;;11.82;61.51;101991.16;5094928;27;45429;-61
2021/10/27 04:21:02;;;;;;;;;17.75;17.00;;;;;11.83;61.53;101995.56;5089270;27;45323;-62
2021/10/27 04:23:28;;;;;;;;;15.50;15.50;;;;;11.79;61.59;101994.69;5097011;27;45223;-62
2021/10/27 04:25:53;;;;;;;;;22.50;19.00;;;;;11.81;61.50;102002.56;5097519;27;46047;-62
2021/10/27 04:28:19;;;;;;;;;24.75;21.75;;;;;11.77;61.71;101998.19;5082502;27;45338;-62
2021/10/27 04:30:45;;;;;;;;;22.25;22.25;;;;;11.79;61.66;101997.31;5098460;27;45626;-62
2021/10/27 04:33:18;;;;;;;;;23.75;22.50;;;;;11.75;61.43;101990.28;5090688;27;45989;-62
2021/10/27 04:35:43;;;;;;;;;19.00;18.50;;;;;11.77;61.53;101995.56;5095769;27;46835;-62
2021/10/27 04:38:09;;;;;;;;;22.75;20.00;;;;;11.73;61.45;101989.41;5095710;27;45381;-63
2021/10/27 04:40:34;;;;;;;;;27.25;21.75;;;;;11.75;61.49;101994.66;5089108;27;45601;-63
2021/10/27 04:42:59;;;;;;;;;21.00;20.75;;;;;11.73;61.48;101994.66;5089563;27;45226;-62
2021/10/27 04:45:25;;;;;;;;;22.75;20.25;;;;;11.71;61.30;102007.84;5094462;27;47058;-62
2021/10/27 04:47:51;;;;;;;;;21.75;19.25;;;;;11.70;61.43;102006.06;5095770;27;45467;-62
2021/10/27 04:50:17;;;;;;;;;19.75;18.75;;;;;11.68;61.41;102005.22;5093270;27;45419;-64
2021/10/27 04:52:42;;;;;;;;;20.50;17.50;;;;;11.68;61.36;102004.31;5102043;27;45470;-62
2021/10/27 04:55:08;;;;;;;;;22.25;19.50;;;;;11.66;61.51;102004.31;5088608;27;45445;-62
2021/10/27 04:57:34;;;;;;;;;21.25;17.75;;;;;11.67;61.46;102007.81;5095237;27;45356;-62
2021/10/27 04:59:59;;;;;;;;;20.25;17.50;;;;;11.66;61.53;102006.06;5097196;27;45438;-62
2021/10/27 05:02:24;;;;;;;;;21.00;20.50;;;;;11.65;61.41;102013.09;5094298;27;45327;-62
2021/10/27 05:04:51;;;;;;;;;21.75;21.75;;;;;11.64;61.55;102016.59;5088259;27;45272;-62
2021/10/27 05:07:17;;;;;;;;;20.50;18.25;;;;;11.63;61.58;102025.38;5090432;27;45373;-62
2021/10/27 05:09:44;;;;;;;;;25.00;23.00;;;;;11.60;61.51;102021.88;5095594;27;45324;-63
2021/10/27 05:12:10;;;;;;;;;21.00;18.75;;;;;11.59;61.13;102018.34;5094352;27;45251;-62
2021/10/27 05:14:41;;;;;;;;;23.00;23.00;;;;;11.58;61.36;102010.44;5088259;27;46128;-62
2021/10/27 05:17:12;;;;;;;;;22.25;20.50;;;;;11.57;61.54;102006.06;5088549;27;45370;-61
2021/10/27 05:19:44;;;;;;;;;20.00;20.00;;;;;11.53;61.61;102008.69;5089336;27;45388;-62
2021/10/27 05:22:10;;;;;;;;;19.75;18.75;;;;;11.52;61.50;102008.66;5088472;27;45275;-61
2021/10/27 05:24:37;;;;;;;;;21.75;18.75;;;;;11.50;61.54;102010.44;5101886;27;45294;-62
2021/10/27 05:27:03;;;;;;;;;24.00;21.75;;;;;11.48;61.54;102020.97;5087902;27;45358;-61
2021/10/27 05:29:29;;;;;;;;;25.50;22.75;;;;;11.49;61.54;102019.22;5099843;27;45352;-62
2021/10/27 05:31:55;;;;;;;;;26.00;22.00;;;;;11.45;61.61;102012.19;5099546;27;45403;-63
2021/10/27 05:34:21;;;;;;;;;23.50;20.25;;;;;11.46;61.54;102006.03;5090335;27;45367;-64
2021/10/27 05:36:47;;;;;;;;;26.00;24.75;;;;;11.43;61.59;102009.53;5085688;27;45488;-62
2021/10/27 05:39:13;;;;;;;;;30.75;25.00;;;;;11.45;61.51;102007.78;5089373;27;45341;-62
2021/10/27 05:41:49;;;;;;;;;26.50;24.50;;;;;11.43;61.72;102003.41;5088306;27;45303;-61
2021/10/27 05:44:16;;;;;;;;;22.75;22.00;;;;;11.43;61.38;101999.00;5090807;27;46353;-61
2021/10/27 05:46:44;;;;;;;;;24.00;22.50;;;;;11.38;61.56;101993.75;5094796;27;45235;-61
2021/10/27 05:49:18;;;;;;;;;23.50;22.25;;;;;11.37;61.39;101991.09;5092559;27;45365;-62
2021/10/27 05:51:57;;;;;;;;;22.75;20.00;;;;;11.38;61.59;101979.69;5100016;27;45823;-61
2021/10/27 05:57:07;;;;;;;;;22.00;21.50;;;;;11.32;61.32;101987.56;5089020;27;45720;-61
2021/10/27 05:59:32;;;;;;;;;22.75;19.50;;;;;11.32;61.57;101985.84;5099859;27;45358;-61
2021/10/27 06:01:58;;;;;;;;;22.75;21.50;;;;;11.30;61.56;101979.69;5089729;27;45244;-62
2021/10/27 06:04:24;;;;;;;;;29.75;25.00;;;;;11.32;61.62;101988.47;5086275;27;46118;-63
2021/10/27 06:06:49;;;;;;;;;21.00;19.75;;;;;11.28;61.41;101984.06;5092910;27;45249;-63
2021/10/27 06:09:16;;;;;;;;;29.50;25.75;;;;;11.29;61.60;101977.91;5094756;27;45195;-62
2021/10/27 06:11:43;;;;;;;;;26.00;24.75;;;;;11.30;61.60;101982.31;5089946;27;45395;-62
2021/10/27 06:14:09;;;;;;;;;23.75;23.50;;;;;11.28;61.50;101986.72;5087385;27;45508;-61
2021/10/27 06:16:34;;;;;;;;;26.00;24.25;;;;;11.28;61.25;101984.06;5091400;27;45399;-61
2021/10/27 06:19:00;;;;;;;;;32.50;23.00;;;;;11.27;61.55;101984.94;5094097;27;45343;-61
2021/10/27 06:21:26;;;;;;;;;25.50;24.75;;;;;11.26;61.49;101987.53;5090202;27;45511;-62
2021/10/27 06:23:52;;;;;;;;;26.75;22.75;;;;;11.28;61.55;101986.72;5094017;27;46289;-62
2021/10/27 06:26:22;;;;;;;;;24.75;22.50;;;;;11.23;61.65;101983.16;5091314;27;45227;-60
2021/10/27 06:29:03;;;;;;;;;23.50;21.25;;;;;11.26;61.50;101988.44;5094979;27;45496;-61
2021/10/27 06:31:38;;;;;;;;;27.25;26.00;;;;;11.26;61.67;101990.19;5100998;27;45243;-61
2021/10/27 06:47:16;;;;;;;;;28.25;23.75;;;;;11.26;61.83;102006.88;5089976;27;45324;-61
2021/10/27 06:49:42;;;;;;;;;29.00;26.00;;;;;11.26;61.97;102008.59;5089921;27;45282;-64
2021/10/27 06:52:07;;;;;;;;;23.75;22.25;;;;;11.28;61.81;102012.13;5100626;27;46176;-62
2021/10/27 06:54:32;;;;;;;;;25.50;20.75;;;;;11.28;61.83;102014.75;5086842;27;46580;-65
2021/10/27 06:56:58;;;;;;;;;29.00;25.50;;;;;11.29;61.85;102017.38;5095199;27;45687;-52
2021/10/27 07:04:51;;;;;;;;;32.00;28.25;;;;;11.27;62.07;102027.03;5086286;27;45942;-59
2021/10/27 07:14:58;;;;;;;;;34.25;29.50;;;;;11.25;62.01;102025.28;5096857;27;45492;-54
2021/10/27 07:15:34;;;;;;;;;28.00;26.75;;;;;11.25;61.96;102026.16;5094617;27;45951;-50
2021/10/27 07:18:00;;;;;;;;;24.00;23.00;;;;;11.24;62.06;102021.75;5095813;27;45330;-56
2021/10/27 07:20:26;;;;;;;;;27.75;25.00;;;;;11.28;62.16;102033.19;5100727;27;45291;-56
2021/10/27 07:22:53;;;;;;;;;28.25;25.25;;;;;11.25;62.11;102028.78;5092745;27;45298;-51
2021/10/27 07:25:18;;;;;;;;;25.50;24.00;;;;;11.30;62.13;102041.97;5099314;27;46045;-56
2021/10/27 07:27:45;;;;;;;;;26.25;24.75;;;;;11.30;61.99;102048.09;5095856;27;45387;-57
2021/10/27 07:30:11;;;;;;;;;20.75;19.75;;;;;11.28;62.18;102041.06;5100566;27;45867;-55
2021/10/27 07:32:36;;;;;;;;;26.75;24.25;;;;;11.26;62.07;102035.81;5100722;27;45324;-56
2021/10/27 07:35:15;;;;;;;;;30.50;27.75;;;;;11.32;62.18;102045.47;5096615;27;45531;-57
2021/10/27 07:40:37;;;;;;;;;23.75;22.75;;;;;11.32;62.43;102048.09;5096758;27;45323;-63
2021/10/27 07:43:10;;;;;;;;;24.75;23.00;;;;;11.33;62.38;102053.38;5101433;27;45460;-62
2021/10/27 07:45:37;;;;;;;;;26.25;25.25;;;;;11.31;62.51;102049.88;5093485;27;46352;-61
2021/10/27 07:48:03;;;;;;;;;25.75;21.25;;;;;11.32;62.63;102050.72;5096023;27;45497;-61
2021/10/27 07:50:30;;;;;;;;;23.75;22.50;;;;;11.30;62.53;102063.88;5102405;27;45304;-61
2021/10/27 07:53:05;;;;;;;;;23.50;21.75;;;;;11.31;62.51;102064.78;5097010;27;45870;-60
2021/10/27 07:55:31;;;;;;;;;21.75;21.25;;;;;11.31;62.51;102068.28;5097802;27;47135;-62
2021/10/27 07:57:57;;;;;;;;;29.50;23.75;;;;;11.31;62.45;102068.28;5095772;27;45389;-62
2021/10/27 08:00:23;;;;;;;;;28.00;24.75;;;;;11.24;62.69;102057.72;5097639;27;45330;-63
2021/10/27 08:02:49;;;;;;;;;33.50;30.25;;;;;11.32;62.58;102066.50;5092630;27;45429;-63
2021/10/27 08:05:16;;;;;;;;;28.75;25.25;;;;;11.29;62.74;102064.75;5099650;27;48234;-62
2021/10/27 08:07:50;;;;;;;;;31.50;29.25;;;;;11.29;62.66;102064.75;5099017;27;45422;-59
2021/10/27 08:10:17;;;;;;;;;23.50;22.75;;;;;11.31;62.68;102067.41;5093638;27;45408;-60
2021/10/27 08:12:43;;;;;;;;;31.75;28.00;;;;;11.30;62.70;102074.41;5099846;27;45502;-59
2021/10/27 08:15:10;;;;;;;;;27.75;27.50;;;;;11.31;62.76;102078.81;5101844;27;47111;-60
2021/10/27 08:17:36;;;;;;;;;33.75;32.00;;;;;11.33;62.81;102074.44;5098004;27;45417;-59
2021/10/27 08:20:04;;;;;;;;;30.00;26.25;;;;;11.34;62.86;102078.81;5097770;27;45432;-60
2021/10/27 08:22:30;;;;;;;;;34.00;32.00;;;;;11.36;62.87;102077.06;5093246;27;45353;-58
2021/10/27 08:24:55;;;;;;;;;45.75;33.75;;;;;11.36;62.65;102079.69;5096302;27;45242;-59
2021/10/27 08:27:21;;;;;;;;;34.50;28.50;;;;;11.37;62.99;102081.47;5094654;27;45225;-60
2021/10/27 08:29:47;;;;;;;;;45.75;35.75;;;;;11.41;62.59;102085.00;5099212;27;45368;-60
2021/10/27 08:34:48;;;;;;;;;41.50;33.75;;;;;11.47;62.77;102086.75;5096604;27;45571;-61
2021/10/27 08:37:15;;;;;;;;;37.50;32.25;;;;;11.48;62.87;102080.63;5090246;27;45467;-60
2021/10/27 08:39:42;;;;;;;;;35.50;31.25;;;;;11.51;62.87;102078.03;5095531;27;45370;-59
2021/10/27 08:42:08;;;;;;;;;39.00;32.50;;;;;11.50;62.89;102074.50;5096012;27;45255;-58
2021/10/27 08:44:33;;;;;;;;;32.25;30.50;;;;;11.55;63.07;102074.50;5094191;27;46143;-59
2021/10/27 08:47:01;;;;;;;;;41.25;32.75;;;;;11.59;63.01;102081.53;5093252;27;45322;-59
2021/10/27 08:49:28;;;;;;;;;40.50;34.50;;;;;11.60;62.67;102072.78;5101187;27;45207;-59
2021/10/27 08:51:57;;;;;;;;;41.00;34.75;;;;;11.66;63.03;102083.31;5093833;27;45351;-60
2021/10/27 08:54:23;;;;;;;;;32.50;29.75;;;;;11.71;62.88;102084.22;5096144;27;46587;-60
2021/10/27 08:56:49;;;;;;;;;37.75;33.50;;;;;11.76;62.88;102078.06;5086731;27;45261;-59
2021/10/27 08:59:22;;;;;;;;;22.25;18.00;;;;;11.76;62.87;102075.44;5101872;27;45145;-60
2021/10/27 10:06:18;;;;;;;;;45.25;35.75;;;;;12.77;63.33;102052.63;5087554;27;45233;-59
2021/10/27 10:08:45;;;;;;;;;29.00;28.50;;;;;12.82;63.40;102037.66;5090317;27;45346;-60
2021/10/27 10:11:12;;;;;;;;;38.00;33.75;;;;;12.86;63.35;102036.75;5093995;27;47159;-59
2021/10/27 10:13:39;;;;;;;;;38.25;33.50;;;;;12.90;63.45;102043.78;5091684;27;45385;-59
2021/10/27 10:16:06;;;;;;;;;36.00;31.75;;;;;12.99;63.44;102046.41;5081170;27;45379;-59
2021/10/27 10:18:32;;;;;;;;;42.00;33.50;;;;;13.05;63.69;102047.25;5088258;27;45806;-59
2021/10/27 10:20:59;;;;;;;;;34.75;31.50;;;;;13.15;63.70;102046.34;5092283;27;47495;-60
2021/10/27 10:23:25;;;;;;;;;31.25;30.25;;;;;13.25;63.65;102053.31;5094111;27;45400;-63
2021/10/27 10:25:57;;;;;;;;;37.00;31.75;;;;;13.35;63.30;102051.53;5094739;27;45357;-61
2021/10/27 10:28:27;;;;;;;;;29.25;28.00;;;;;13.48;63.56;102053.25;5092181;27;45266;-59
2021/10/27 10:31:00;;;;;;;;;28.25;27.25;;;;;13.63;63.35;102054.94;5100633;27;45366;-60
2021/10/27 10:33:45;;;;;;;;;33.00;29.25;;;;;13.79;63.61;102060.13;5086837;27;45411;-59
2021/10/27 10:36:20;;;;;;;;;28.00;27.75;;;;;13.95;63.86;102056.47;5089923;27;45394;-61
2021/10/27 11:38:36;;;;;;;;;65.25;50.25;;;;;17.40;61.95;101975.44;5091019;27;45334;-59
2021/10/27 11:41:19;;;;;;;;;24.50;23.00;;;;;17.49;61.74;101976.06;5087769;27;45231;-59
2021/10/27 11:46:45;;;;;;;;;23.50;20.00;;;;;17.81;61.60;101968.22;5085759;27;45703;-57
2021/10/27 11:49:12;;;;;;;;;27.25;24.50;;;;;17.95;61.44;101973.22;5090597;27;46275;-58
2021/10/27 11:51:38;;;;;;;;;25.00;22.50;;;;;18.09;60.94;101968.41;5099273;27;45325;-57
2021/10/27 11:54:15;;;;;;;;;18.00;17.50;;;;;18.19;60.75;101964.59;5089754;27;45438;-58
2021/10/27 11:56:41;;;;;;;;;19.75;17.50;;;;;18.36;60.99;101957.94;5091459;27;45538;-58
2021/10/27 11:59:07;;;;;;;;;23.75;21.50;;;;;18.51;60.89;101957.53;5096555;27;47193;-58
2021/10/27 12:01:41;;;;;;;;;22.75;21.50;;;;;18.64;61.09;101950.06;5085841;27;45468;-59
2021/10/27 12:04:15;;;;;;;;;21.00;19.00;;;;;18.81;61.11;101952.22;5090226;27;45310;-58
2021/10/27 12:07:03;;;;;;;;;17.00;16.25;;;;;18.95;60.15;101945.66;5101700;27;45536;-59
2021/10/27 12:18:05;;;;;;;;;15.75;15.75;;;;;19.60;60.12;101922.28;5089818;27;45347;-59
2021/10/27 12:20:41;;;;;;;;;16.25;16.25;;;;;19.74;59.69;101916.47;5085653;27;46192;-59
2021/10/27 12:23:15;;;;;;;;;16.25;14.25;;;;;19.89;60.19;101917.78;5096569;27;45597;-59
2021/10/27 12:25:41;;;;;;;;;16.50;16.50;;;;;20.02;60.02;101910.22;5098948;27;45247;-58
2021/10/27 12:28:31;;;;;;;;;15.25;14.50;;;;;20.17;59.41;101892.78;5092633;27;45317;-58
2021/10/27 12:30:57;;;;;;;;;12.50;12.50;;;;;20.29;59.53;101892.34;5097314;27;45286;-58
2021/10/27 12:33:39;;;;;;;;;15.25;14.50;;;;;20.40;59.43;101886.59;5090261;27;45251;-59
2021/10/27 12:36:18;;;;;;;;;17.00;14.00;;;;;20.55;59.57;101888.69;5092929;27;45356;-59
2021/10/27 12:39:31;;;;;;;;;13.75;12.00;;;;;20.69;59.32;101881.94;5095405;27;45437;-60
2021/10/27 12:42:09;;;;;;;;;9.75;9.75;;;;;20.82;58.67;101871.66;5100108;27;45386;-59
2021/10/27 12:44:46;;;;;;;;;13.75;10.50;;;;;20.92;58.70;101865.91;5089203;27;45423;-59
2021/10/27 12:47:27;;;;;;;;;16.25;12.00;;;;;21.02;58.10;101861.06;5091199;27;45410;-59
2021/10/27 12:50:08;;;;;;;;;15.75;12.50;;;;;21.06;57.92;101856.47;5091400;27;45544;-59
2021/10/27 12:52:38;;;;;;;;;14.00;12.00;;;;;21.16;57.80;101857.84;5112177;27;46205;-61
2021/10/27 12:55:08;;;;;;;;;13.00;11.50;;;;;21.20;57.51;101848.75;5088467;27;45347;-61
2021/10/27 12:57:55;;;;;;;;;12.75;11.75;;;;;21.26;57.31;101853.00;5095184;27;45498;-61
2021/10/27 13:00:29;;;;;;;;;11.00;9.25;;;;;21.32;57.79;101850.06;5088795;27;45590;-61
2021/10/27 13:05:50;;;;;;;;;9.50;7.75;;;;;21.42;57.04;101837.16;5092279;27;45509;-59
2021/10/27 13:08:44;;;;;;;;;10.75;10.75;;;;;21.50;57.12;101842.19;5088128;27;45471;-58
2021/10/27 13:16:06;;;;;;;;;2.00;2.00;;;;;21.57;57.04;101823.19;5095298;27;45372;-58
2021/10/27 13:18:54;;;;;;;;;5.25;4.00;;;;;21.65;56.65;101819.31;5091478;27;45915;-57
2021/10/27 13:21:31;;;;;;;;;5.50;5.00;;;;;21.65;56.84;101814.81;5089942;27;45509;-56
2021/10/27 13:31:59;;;;;;;;;4.50;4.00;;;;;21.91;56.02;101816.31;5093057;27;45226;-55
2021/10/27 13:34:25;;;;;;;;;5.00;5.00;;;;;21.94;56.02;101812.66;5080918;27;46001;-56
2021/10/27 13:36:51;;;;;;;;;4.00;4.00;;;;;22.04;55.83;101813.97;5080998;27;45423;-57
2021/10/27 13:39:17;;;;;;;;;5.25;4.50;;;;;22.10;55.83;101817.28;5079964;27;45329;-57
2021/10/27 13:41:48;;;;;;;;;4.00;3.25;;;;;22.16;55.86;101806.31;5080962;27;45477;-57
2021/10/27 13:44:18;;;;;;;;;7.00;4.50;;;;;22.23;55.72;101810.44;5080927;27;46214;-57
2021/10/27 14:08:27;;;;;;;;;4.00;4.00;;;;;22.46;54.56;101779.91;5088101;27;45394;-57
2021/10/27 14:40:11;;;;;;;;;1.50;1.50;;;;;22.72;53.45;101751.88;5086690;27;45386;-58
2021/10/27 14:48:23;;;;;;;;;2.75;2.00;;;;;22.81;52.68;101745.19;5092155;27;45401;-55
2021/10/27 15:20:55;;;;;;;;;2.00;2.00;;;;;22.67;51.88;101721.75;5084644;27;45826;-55
2021/10/27 15:31:35;;;;;;;;;6.00;4.00;;;;;22.34;51.81;101722.44;5089526;27;45740;-56
2021/10/27 15:34:22;;;;;;;;;3.00;3.00;;;;;22.23;51.48;101717.59;5091153;27;45379;-57
2021/10/27 15:52:41;;;;;;;;;7.75;7.00;;;;;21.57;51.61;101718.00;5103718;27;45347;-63
2021/10/27 15:55:07;;;;;;;;;10.00;8.75;;;;;21.49;51.55;101714.78;5089449;27;45322;-63
2021/10/27 15:57:33;;;;;;;;;12.25;12.25;;;;;21.40;52.04;101714.25;5097621;27;45432;-63
2021/10/27 15:59:58;;;;;;;;;19.75;19.75;;;;;21.32;51.77;101718.19;5089679;27;45300;-63
2021/10/27 16:02:23;;;;;;;;;8.25;8.25;;;;;21.20;52.04;101708.91;5090174;27;48296;-63
2021/10/27 16:04:49;;;;;;;;;7.75;6.25;;;;;21.11;52.00;101708.38;5096213;27;45419;-63
2021/10/27 16:07:16;;;;;;;;;13.25;13.25;;;;;21.04;51.59;101709.59;5093807;27;45274;-63